Flight Track Log - Related Links

Times and Time Zones

All times are in EDT time to prevent confusion due to time zone crossing. See the DAL2104 flight status page for this flight to view local times or setup timezone preferences in your user account.

Time Position Orientation Groundspeed Altitude Reporting Facility
EDT Latitude Longitude Course Direction KTS MPH feet Rate Location/Type
Sun 07:56:38 PM 33.6500 -84.4667 320° Northwest 149 171 2,700  Level Atlanta TRACON
Sun 07:57:38 PM 33.6667 -84.5167 292° West 221 254 4,500 2,700 Climbing Atlanta TRACON
Sun 07:58:00 PM 33.8112 -84.1667 North  Level FlightAware Approximate
Sun 07:58:38 PM 33.7167 -84.5833 312° West 272 313 8,100  Level Atlanta TRACON
Sun 07:59:00 PM 33.9040 -84.2373 320° Northwest  Level FlightAware Approximate
Sun 08:00:00 PM 33.9918 -84.3250 320° Northwest  Level FlightAware Approximate
Sun 08:00:46 PM 33.8892 -84.5844 360° North 288 331 11,700  Level Atlanta Center
Sun 08:01:00 PM 34.0795 -84.4128 320° Northwest  Level FlightAware Approximate
Sun 08:01:46 PM 33.9808 -84.5850 360° North 334 384 13,900  Level Atlanta Center
Sun 08:02:46 PM 34.0956 -84.5881 359° North 351 404 16,800 2,550 Climbing Atlanta Center
Sun 08:03:46 PM 34.1958 -84.5914 358° North 383 441 19,000 2,200 Climbing Atlanta Center
Sun 08:04:46 PM 34.3086 -84.6022 355° North 403 464 21,200 2,100 Climbing Atlanta Center
Sun 08:05:46 PM 34.4211 -84.6281 349° North 408 470 23,200 2,000 Climbing Atlanta Center
Sun 08:06:46 PM 34.5358 -84.6567 348° North 417 480 25,200 1,800 Climbing Atlanta Center
Sun 08:07:46 PM 34.6525 -84.6828 350° North 417 480 26,800 1,400 Climbing Atlanta Center
Sun 08:08:46 PM 34.7794 -84.7192 347° North 417 480 28,000 1,600 Climbing Atlanta Center
Sun 08:09:46 PM 34.8983 -84.7478 349° North 425 489 30,000 1,700 Climbing Atlanta Center
Sun 08:10:46 PM 35.0150 -84.7767 349° North 425 489 31,400 1,400 Climbing Atlanta Center
Sun 08:11:46 PM 35.1317 -84.8058 348° North 431 496 32,800 1,300 Climbing Atlanta Center
Sun 08:12:46 PM 35.2483 -84.8347 349° North 426 490 34,000 1,400 Climbing Atlanta Center
Sun 08:13:46 PM 35.3672 -84.8639 349° North 426 490 35,600 1,000 Climbing Atlanta Center
Sun 08:14:46 PM 35.4794 -84.8931 348° North 426 490 36,000 200 Climbing Atlanta Center
Sun 08:15:46 PM 35.5961 -84.9225 348° North 426 490 36,000  Level Atlanta Center
Sun 08:16:46 PM 35.7086 -84.9517 348° North 426 490 36,000  Level Atlanta Center
Sun 08:17:46 PM 35.8253 -84.9811 348° North 420 483 36,000  Level Atlanta Center
Sun 08:20:08 PM 36.0867 -85.0461 349° North 423 487 36,000  Level Indianapolis Center
Sun 08:21:10 PM 36.2031 -85.0761 348° North 426 490 36,000 49 Level Indianapolis Center
Sun 08:22:11 PM 36.3197 -85.1069 348° North 426 490 36,100  Climbing Indianapolis Center
Sun 08:23:13 PM 36.4603 -85.1422 349° North 429 494 36,000 -49 Descending Indianapolis Center
Sun 08:24:14 PM 36.5758 -85.1722 348° North 426 490 36,000  Level Indianapolis Center
Sun 08:25:16 PM 36.6892 -85.2014 348° North 419 482 36,000  Level Indianapolis Center
Sun 08:26:18 PM 36.8022 -85.2311 348° North 415 478 36,000 -49 Level Indianapolis Center
Sun 08:27:19 PM 36.9175 -85.2611 348° North 421 484 35,900  Descending Indianapolis Center
Sun 08:28:21 PM 37.0325 -85.2914 348° North 422 486 36,000 48 Climbing Indianapolis Center
Sun 08:29:23 PM 37.1625 -85.3350 345° North 421 484 36,000  Level Indianapolis Center
Sun 08:30:24 PM 37.2703 -85.3875 339° North 415 478 36,000  Level Indianapolis Center
Sun 08:31:26 PM 37.3781 -85.4400 339° North 415 478 36,000  Level Indianapolis Center
Sun 08:32:27 PM 37.4892 -85.4933 339° North 423 487 36,000  Level Indianapolis Center
Sun 08:33:29 PM 37.5939 -85.5453 339° North 437 503 36,000  Level Indianapolis Center
Sun 08:34:30 PM 37.7067 -85.6006 339° North 435 501 36,000  Level Indianapolis Center
Sun 08:35:32 PM 37.8394 -85.6661 339° North 428 493 36,000  Level Indianapolis Center
Sun 08:36:34 PM 37.9511 -85.7236 338° Northwest 431 496 36,000  Level Indianapolis Center
Sun 08:37:35 PM 38.0625 -85.7778 339° North 430 495 36,000  Level Indianapolis Center
Sun 08:38:37 PM 38.1739 -85.8331 339° North 429 494 36,000  Level Indianapolis Center
Sun 08:39:38 PM 38.2842 -85.8881 339° North 427 491 36,000  Level Indianapolis Center
Sun 08:40:40 PM 38.3953 -85.9444 338° Northwest 430 495 36,000  Level Indianapolis Center
Sun 08:41:41 PM 38.5047 -86.0003 338° Northwest 425 489 36,000  Level Indianapolis Center
Sun 08:42:43 PM 38.6142 -86.0547 339° North 423 487 36,000  Level Indianapolis Center
Sun 08:43:44 PM 38.7242 -86.1106 338° Northwest 424 488 36,000  Level Indianapolis Center
Sun 08:44:46 PM 38.8542 -86.1778 338° Northwest 421 484 36,000  Level Indianapolis Center
Sun 08:45:47 PM 38.9628 -86.2133 346° North 431 496 36,000  Level Indianapolis Center
Sun 08:46:49 PM 39.0794 -86.2417 349° North 429 494 36,000  Level Indianapolis Center
Sun 08:47:50 PM 39.1931 -86.2847 344° North 426 490 36,000  Level Indianapolis Center
Sun 08:48:52 PM 39.3064 -86.3267 344° North 424 488 36,000  Level Indianapolis Center
Sun 08:49:53 PM 39.4192 -86.3706 343° North 423 487 36,000  Level Indianapolis Center
Sun 08:50:55 PM 39.5553 -86.4222 344° North 423 487 36,000  Level Indianapolis Center
Sun 08:51:56 PM 39.6694 -86.4678 343° North 422 486 36,000  Level Indianapolis Center
Sun 08:52:58 PM 39.7906 -86.4936 351° North 433 498 36,000  Level Indianapolis Center
Sun 08:53:59 PM 39.9117 -86.5128 353° North 434 499 36,000  Level Indianapolis Center
Sun 08:55:00 PM 40.0317 -86.5336 352° North 433 498 36,000  Level Indianapolis Center
Sun 08:55:56 PM 40.1281 -86.5497 353° North 435 501 36,000  Level Chicago Center
Sun 08:56:58 PM 40.2494 -86.5694 353° North 438 504 36,000 -242 Level Chicago Center
Sun 08:58:00 PM 40.3892 -86.6072 348° North 433 498 35,500 -484 Descending Chicago Center
Sun 08:59:02 PM 40.4881 -86.6817 330° Northwest 416 479 35,000 -242 Descending Chicago Center
Sun 09:00:04 PM 40.5906 -86.7528 332° Northwest 418 481 35,000 -339 Level Chicago Center
Sun 09:01:06 PM 40.6919 -86.8253 332° Northwest 418 481 34,300 -484 Descending Chicago Center
Sun 09:02:08 PM 40.7950 -86.8983 332° Northwest 408 470 34,000 -145 Descending Chicago Center
Sun 09:03:10 PM 40.8939 -86.9689 332° Northwest 406 467 34,000  Level Chicago Center
Sun 09:04:12 PM 41.0119 -87.0556 331° Northwest 408 470 34,000  Level Chicago Center
Sun 09:05:14 PM 41.1122 -87.1281 331° Northwest 411 473 34,000  Level Chicago Center
Sun 09:06:16 PM 41.2111 -87.2000 331° Northwest 409 471 34,000  Level Chicago Center
Sun 09:07:18 PM 41.3078 -87.2728 331° Northwest 405 466 34,000  Level Chicago Center
Sun 09:08:20 PM 41.4072 -87.3447 332° Northwest 408 470 34,000 -581 Level Chicago Center
Sun 09:09:22 PM 41.5239 -87.4314 331° Northwest 404 465 32,800 -968 Descending Chicago Center
Sun 09:10:24 PM 41.6158 -87.5103 327° Northwest 401 461 32,000 -387 Descending Chicago Center
Sun 09:11:26 PM 41.6986 -87.6067 319° Northwest 400 460 32,000  Level Chicago Center
Sun 09:12:28 PM 41.7817 -87.7019 319° Northwest 400 460 32,000  Level Chicago Center
Sun 09:13:30 PM 41.8811 -87.8183 319° Northwest 400 460 32,000 -339 Level Chicago Center
Sun 09:14:32 PM 41.9647 -87.9158 319° Northwest 402 463 31,300 -823 Descending Chicago Center
Sun 09:15:34 PM 42.0458 -88.0108 319° Northwest 393 452 30,300 -1,355 Descending Chicago Center
Sun 09:16:36 PM 42.1261 -88.1069 318° Northwest 389 448 28,500 -2,516 Descending Chicago Center
Sun 09:17:38 PM 42.2064 -88.2022 319° Northwest 388 447 25,100 -2,371 Descending Chicago Center
Sun 09:18:40 PM 42.2981 -88.3108 319° Northwest 371 427 23,600 -2,323 Descending Chicago Center
Sun 09:19:42 PM 42.3758 -88.4033 319° Northwest 361 415 20,300 -2,952 Descending Chicago Center
Sun 09:20:44 PM 42.4489 -88.4919 318° Northwest 354 407 17,500 -2,903 Descending Chicago Center
Sun 09:21:46 PM 42.5197 -88.5781 318° Northwest 342 394 14,300 -2,829 Descending Chicago Center
Sun 09:22:47 PM 42.5894 -88.6617 319° Northwest 334 384 11,700 -1,561 Descending Chicago Center
Sun 09:23:49 PM 42.6542 -88.7392 319° Northwest 312 359 11,100 -290 Descending Chicago Center
Sun 09:24:51 PM 42.7172 -88.8158 318° Northwest 305 351 11,100 -48 Level Chicago Center
Sun 09:25:53 PM 42.7808 -88.8933 318° Northwest 305 351 11,000 -823 Descending Chicago Center
Sun 09:26:55 PM 42.8444 -88.9700 319° Northwest 258 297 9,400 -927 Descending Chicago Center
Sun 09:27:56 PM 42.8944 -89.0328 317° Northwest 244 281 9,100 -634 Descending Chicago Center
Sun 09:28:58 PM 42.9244 -89.1133 297° West 241 277 8,100 -1,839 Descending Chicago Center
Sun 09:30:00 PM 42.9442 -89.2047 286° West 249 287 5,300 -1,887 Descending Chicago Center
Sun 09:31:02 PM 42.9756 -89.2689 304° West 227 261 4,200 -976 Descending Chicago Center
Sun 09:32:03 PM 43.0128 -89.3158 317° Northwest 197 227 3,300 -885 Descending Chicago Center

Login

Don't have an account? Register now (free) for customized features, flight alerts, and more!